Time;durP1;ratioP1;P1;durP2;ratioP2;P2;SDS_P1;SDS_P2;PMS_P1;PMS_P2;Temp;Humidity;BMP_temperature;BMP_pressure;BME280_temperature;BME280_humidity;BME280_pressure;Samples;Min_cycle;Max_cycle;Signal;HPM_P1;HPM_P2
2021/01/13 00:00:32;;;;;;;4.87;3.10;;;;;;;-3.89;100.00;99277.78;1815211;79;20953;-71
2021/01/13 00:03:00;;;;;;;6.40;3.80;;;;;;;-3.92;100.00;99293.81;1815296;79;20920;-72
2021/01/13 00:05:28;;;;;;;8.40;3.77;;;;;;;-3.95;100.00;99280.80;1815293;79;21023;-72
2021/01/13 00:07:56;;;;;;;5.63;3.57;;;;;;;-3.98;100.00;99269.13;1815408;78;20984;-71
2021/01/13 00:10:25;;;;;;;5.67;3.20;;;;;;;-4.01;100.00;99272.80;1815264;79;21376;-72
2021/01/13 00:12:53;;;;;;;9.33;4.77;;;;;;;-4.03;100.00;99264.13;1815174;79;21028;-72
2021/01/13 00:15:21;;;;;;;5.03;2.70;;;;;;;-4.05;100.00;99245.38;1815589;78;21478;-72
2021/01/13 00:17:50;;;;;;;7.17;3.70;;;;;;;-4.06;100.00;99225.19;1815440;79;20980;-72
2021/01/13 00:20:18;;;;;;;9.53;4.73;;;;;;;-4.09;100.00;99181.80;1815492;79;20940;-71
2021/01/13 00:22:46;;;;;;;4.17;2.30;;;;;;;-4.11;100.00;99164.73;1815494;79;21312;-71
2021/01/13 00:25:17;;;;;;;9.60;6.07;;;;;;;-4.14;100.00;99163.64;1815457;79;20981;-73
2021/01/13 00:27:46;;;;;;;11.07;5.00;;;;;;;-4.15;100.00;99167.22;1815562;79;21031;-71
2021/01/13 00:30:17;;;;;;;8.20;4.23;;;;;;;-4.16;100.00;99152.78;1815494;78;21015;-72
2021/01/13 00:32:46;;;;;;;13.50;5.47;;;;;;;-4.18;100.00;99148.09;1815582;79;20996;-72
2021/01/13 00:35:15;;;;;;;9.27;5.23;;;;;;;-4.21;100.00;99151.30;1815443;79;21187;-73
2021/01/13 00:37:43;;;;;;;5.30;2.80;;;;;;;-4.22;100.00;99158.00;1815187;79;21003;-72
2021/01/13 00:40:13;;;;;;;7.97;3.93;;;;;;;-4.26;100.00;99159.98;1815292;77;20925;-73
2021/01/13 00:42:47;;;;;;;7.73;4.93;;;;;;;-4.28;100.00;99157.09;1815347;79;20905;-72
2021/01/13 00:45:18;;;;;;;7.97;4.43;;;;;;;-4.30;100.00;99167.73;1815307;79;21008;-72
2021/01/13 00:47:51;;;;;;;9.17;4.37;;;;;;;-4.30;100.00;99170.37;1764985;81;21439;-73
2021/01/13 00:50:26;;;;;;;6.07;3.97;;;;;;;-4.27;100.00;99156.13;1845396;76;23043;-73
2021/01/13 00:52:54;;;;;;;7.57;4.07;;;;;;;-4.30;100.00;99156.31;1816149;78;20902;-72
2021/01/13 00:55:23;;;;;;;10.30;4.43;;;;;;;-4.31;100.00;99158.12;1815407;79;20957;-72
2021/01/13 00:57:51;;;;;;;15.70;7.23;;;;;;;-4.30;100.00;99147.95;1815262;78;20988;-73
2021/01/13 01:00:20;;;;;;;23.13;8.73;;;;;;;-4.30;100.00;99131.23;1815275;77;21000;-72
2021/01/13 01:02:51;;;;;;;18.00;8.93;;;;;;;-4.30;100.00;99124.19;1815223;79;21609;-73
2021/01/13 01:05:20;;;;;;;10.63;4.23;;;;;;;-4.31;100.00;99113.24;1815348;79;21031;-72
2021/01/13 01:07:48;;;;;;;9.23;5.27;;;;;;;-4.31;100.00;99110.60;1815329;79;21350;-73
2021/01/13 01:10:19;;;;;;;6.93;3.73;;;;;;;-4.32;100.00;99100.14;1815286;79;20893;-72
2021/01/13 01:12:47;;;;;;;8.27;5.03;;;;;;;-4.33;100.00;99098.47;1815358;79;20905;-71
2021/01/13 01:15:15;;;;;;;8.70;4.50;;;;;;;-4.34;100.00;99096.76;1815170;79;21012;-72
2021/01/13 01:17:44;;;;;;;11.63;6.03;;;;;;;-4.37;100.00;99091.22;1815377;78;20940;-72
2021/01/13 01:20:14;;;;;;;7.00;3.83;;;;;;;-4.39;100.00;99062.77;1815286;79;22567;-73
2021/01/13 01:22:54;;;;;;;4.83;3.37;;;;;;;-4.39;100.00;99058.81;1815295;77;21044;-71
2021/01/13 01:25:25;;;;;;;11.97;4.73;;;;;;;-4.40;100.00;99046.55;1815277;78;20889;-72
2021/01/13 01:27:54;;;;;;;7.60;3.90;;;;;;;-4.42;100.00;99036.57;1815221;79;20988;-72
2021/01/13 01:30:25;;;;;;;8.40;3.30;;;;;;;-4.44;100.00;99024.79;1815345;79;20921;-73
2021/01/13 01:32:53;;;;;;;4.20;2.53;;;;;;;-4.45;100.00;99026.20;1815325;79;21401;-73
2021/01/13 01:35:21;;;;;;;12.77;7.77;;;;;;;-4.47;100.00;99022.34;1816823;78;20924;-73
2021/01/13 01:37:51;;;;;;;14.70;6.73;;;;;;;-4.49;100.00;99015.49;1835118;77;21538;-72
2021/01/13 01:40:20;;;;;;;15.87;7.63;;;;;;;-4.49;100.00;99004.94;1834897;78;21052;-73
2021/01/13 01:42:52;;;;;;;29.40;15.60;;;;;;;-4.50;100.00;99015.11;1835070;78;21000;-72
2021/01/13 01:45:26;;;;;;;27.03;13.60;;;;;;;-4.51;100.00;99001.08;1765367;81;21218;-72
2021/01/13 01:48:14;;;;;;;20.63;10.67;;;;;;;-4.50;100.00;99000.11;1765385;81;21063;-73
2021/01/13 01:50:46;;;;;;;22.47;11.93;;;;;;;-4.51;100.00;98981.28;1765317;81;21090;-71
2021/01/13 01:53:39;;;;;;;18.87;10.57;;;;;;;-4.50;100.00;98976.84;1743919;81;21044;-70
2021/01/13 01:56:26;;;;;;;15.50;6.67;;;;;;;-4.51;100.00;98964.14;1737022;81;21036;-72
2021/01/13 01:59:12;;;;;;;30.90;12.50;;;;;;;-4.51;100.00;98958.02;1731692;81;21263;-69
2021/01/13 02:01:43;;;;;;;16.47;9.60;;;;;;;-4.52;100.00;98954.52;1730806;82;21111;-71
2021/01/13 02:04:32;;;;;;;15.70;8.67;;;;;;;-4.53;100.00;98922.50;1732527;81;21044;-71
2021/01/13 02:07:20;;;;;;;23.00;10.60;;;;;;;-4.52;100.00;98918.90;1736257;82;21028;-71
2021/01/13 02:09:48;;;;;;;22.87;10.73;;;;;;;-4.53;100.00;98907.99;1736173;82;21071;-70
2021/01/13 02:12:17;;;;;;;6.03;4.93;;;;;;;-4.52;100.00;98924.17;1736341;82;22118;-70
2021/01/13 02:14:45;;;;;;;9.63;4.50;;;;;;;-4.53;100.00;98907.99;1736309;82;21008;-70
2021/01/13 02:17:13;;;;;;;5.90;4.00;;;;;;;-4.53;100.00;98911.95;1736209;82;21027;-70
2021/01/13 02:19:59;;;;;;;5.10;3.13;;;;;;;-4.51;100.00;98921.92;1736183;82;21016;-70
2021/01/13 02:22:27;;;;;;;2.77;2.53;;;;;;;-4.49;100.00;98917.86;1733016;82;21024;-71
2021/01/13 02:25:19;;;;;;;35.50;14.13;;;;;;;-4.48;100.00;98897.11;1688555;82;21217;-70
2021/01/13 02:28:09;;;;;;;20.15;11.20;;;;;;;-4.47;100.00;98895.69;1736474;82;20937;-70
2021/01/13 02:30:59;;;;;;;20.03;9.40;;;;;;;-4.46;100.00;98876.73;1736296;82;21097;-69
2021/01/13 02:33:44;;;;;;;26.23;11.17;;;;;;;-4.47;100.00;98868.47;1736271;82;21012;-69
2021/01/13 02:36:22;;;;;;;8.73;5.23;;;;;;;-4.47;100.00;98870.62;1736367;82;21000;-71
2021/01/13 02:38:52;;;;;;;8.43;4.27;;;;;;;-4.45;100.00;98883.23;1736239;82;21215;-70
2021/01/13 02:41:24;;;;;;;8.97;5.60;;;;;;;-4.45;100.00;98881.91;1747381;79;21060;-70
2021/01/13 02:44:01;;;;;;;9.20;4.25;;;;;;;-4.45;100.00;98887.67;1805845;79;20976;-71
2021/01/13 02:46:57;;;;;;;7.60;4.73;;;;;;;-4.43;100.00;98911.67;1783983;79;20984;-69
2021/01/13 02:49:29;;;;;;;16.47;7.27;;;;;;;-4.42;100.00;98926.57;1753647;81;20967;-70
2021/01/13 02:52:00;;;;;;;13.57;6.80;;;;;;;-4.39;100.00;98940.05;1765948;80;21444;-69
2021/01/13 02:54:42;;;;;;;4.70;3.63;;;;;;;-4.33;100.00;98915.03;1844988;76;22713;-70
2021/01/13 02:57:19;;;;;;;7.10;3.27;;;;;;;-4.37;100.00;98903.84;1810613;78;20987;-69
2021/01/13 02:59:49;;;;;;;10.10;4.97;;;;;;;-4.35;100.00;98894.02;1815313;79;21363;-70
2021/01/13 03:02:17;;;;;;;3.53;2.37;;;;;;;-4.33;100.00;98888.16;1775555;79;21494;-70
2021/01/13 03:04:46;;;;;;;8.27;2.90;;;;;;;-4.32;100.00;98881.08;1775604;80;21025;-70
2021/01/13 03:07:15;;;;;;;3.10;2.90;;;;;;;-4.33;100.00;98871.48;1775497;80;20942;-69
2021/01/13 03:09:47;;;;;;;4.30;3.23;;;;;;;-4.34;100.00;98882.98;1775507;80;21483;-71
2021/01/13 03:12:25;;;;;;;2.27;2.07;;;;;;;-4.29;100.00;98895.39;1845409;76;23006;-69
2021/01/13 03:14:56;;;;;;;2.10;2.00;;;;;;;-4.33;100.00;98915.03;1727569;81;21001;-69
2021/01/13 03:17:35;;;;;;;2.67;2.17;;;;;;;-4.31;100.00;98895.97;1727342;83;22058;-70
2021/01/13 03:20:56;;;;;;;1.43;1.33;;;;;;;-4.31;100.00;98877.02;1727114;83;21029;-69
2021/01/13 03:23:46;;;;;;;7.47;4.77;;;;;;;-4.31;100.00;98880.97;1723943;83;20957;-70
2021/01/13 03:26:30;;;;;;;11.88;4.50;;;;;;;-4.27;100.00;98852.09;1829442;76;27775;-69
2021/01/13 03:28:58;;;;;;;5.07;3.17;;;;;;;-4.30;100.00;98830.34;1815188;78;20925;-69
2021/01/13 03:31:29;;;;;;;6.70;3.40;;;;;;;-4.27;100.00;98840.69;1815379;79;21080;-69
2021/01/13 03:34:27;;;;;;;6.93;3.87;;;;;;;-4.26;100.00;98847.19;1815418;79;20984;-70
2021/01/13 03:37:10;;;;;;;28.20;13.63;;;;;;;-4.26;100.00;98860.88;1813804;79;20944;-68
2021/01/13 03:39:39;;;;;;;20.55;9.60;;;;;;;-4.25;100.00;98869.14;1815543;78;21515;-70
2021/01/13 03:42:15;;;;;;;14.20;7.67;;;;;;;-4.24;100.00;98854.52;1815423;79;21012;-70
2021/01/13 03:44:46;;;;;;;9.73;5.87;;;;;;;-4.23;100.00;98852.75;1815469;79;21147;-70
2021/01/13 03:47:42;;;;;;;12.37;4.43;;;;;;;-4.25;100.00;98847.57;1815282;79;20968;-69
2021/01/13 03:50:22;;;;;;;5.93;4.20;;;;;;;-4.24;100.00;98829.45;1815413;77;21538;-68
2021/01/13 03:53:11;;;;;;;5.53;3.07;;;;;;;-4.23;100.00;98823.23;1815463;79;21036;-69
2021/01/13 03:55:42;;;;;;;2.57;1.97;;;;;;;-4.23;100.00;98809.20;1758483;79;20996;-70
2021/01/13 03:58:38;;;;;;;2.97;2.43;;;;;;;-4.24;100.00;98807.00;1739868;81;21449;-69
2021/01/13 04:01:27;;;;;;;1.33;1.23;;;;;;;-4.18;100.00;98782.45;1845543;76;22290;-69
2021/01/13 04:04:24;;;;;;;3.95;2.17;;;;;;;-4.22;100.00;98777.87;1815576;79;21016;-68
2021/01/13 04:07:01;;;;;;;1.90;1.80;;;;;;;-4.21;100.00;98788.80;1815464;79;21356;-69
2021/01/13 04:09:31;;;;;;;1.80;1.70;;;;;;;-4.20;100.00;98782.10;1813035;79;20996;-70
2021/01/13 04:12:16;;;;;;;2.33;2.13;;;;;;;-4.21;100.00;98770.33;1815291;79;21004;-70
2021/01/13 04:14:55;;;;;;;2.53;1.97;;;;;;;-4.21;100.00;98763.73;1728287;83;21148;-70
2021/01/13 04:17:27;;;;;;;1.97;1.43;;;;;;;-4.19;100.00;98756.54;1728172;83;20953;-69
2021/01/13 04:19:56;;;;;;;1.75;1.65;;;;;;;-4.18;100.00;98758.70;1728457;83;21339;-70
2021/01/13 04:22:26;;;;;;;3.03;2.07;;;;;;;-4.17;100.00;98738.79;1728111;83;20999;-69
2021/01/13 04:24:54;;;;;;;2.23;2.00;;;;;;;-4.18;100.00;98725.21;1728336;83;21648;-69
2021/01/13 04:27:23;;;;;;;1.97;1.77;;;;;;;-4.16;100.00;98707.49;1727991;83;20992;-69
2021/01/13 04:29:53;;;;;;;1.43;1.33;;;;;;;-4.13;100.00;98707.25;1728342;83;20940;-69
2021/01/13 04:32:21;;;;;;;3.87;2.33;;;;;;;-4.13;100.00;98705.09;1728005;83;21381;-69
2021/01/13 04:34:51;;;;;;;3.13;2.10;;;;;;;-4.12;100.00;98678.59;1728325;83;21000;-69
2021/01/13 04:37:18;;;;;;;1.83;1.53;;;;;;;-4.10;100.00;98666.59;1727778;83;21055;-69
2021/01/13 04:39:47;;;;;;;2.90;1.43;;;;;;;-4.11;100.00;98654.34;1728237;83;21071;-69
2021/01/13 04:42:19;;;;;;;2.87;1.87;;;;;;;-4.09;100.00;98654.61;1728017;83;21071;-70
2021/01/13 04:45:04;;;;;;;1.93;1.83;;;;;;;-4.07;100.00;98646.09;1728334;83;21214;-70
2021/01/13 04:47:50;;;;;;;1.43;1.37;;;;;;;-4.04;100.00;98641.91;1727909;83;20972;-69
2021/01/13 04:50:19;;;;;;;1.17;1.17;;;;;;;-3.99;100.00;98638.08;1728302;83;21047;-70
2021/01/13 04:52:48;;;;;;;1.63;1.53;;;;;;;-3.93;100.00;98656.97;1726007;83;21860;-69
2021/01/13 04:55:24;;;;;;;1.93;1.73;;;;;;;-3.89;100.00;98666.82;1724741;83;20969;-69
2021/01/13 04:58:21;;;;;;;2.83;1.33;;;;;;;-3.85;100.00;98684.12;1712317;83;21209;-68
2021/01/13 05:01:16;;;;;;;5.13;2.80;;;;;;;-3.82;100.00;98681.26;1698972;81;21150;-70
2021/01/13 05:04:02;;;;;;;4.93;3.23;;;;;;;-3.76;100.00;98691.84;1698941;84;21082;-68
2021/01/13 05:06:46;;;;;;;2.27;1.87;;;;;;;-3.74;100.00;98676.72;1698022;84;20992;-68
2021/01/13 05:09:15;;;;;;;;;;;;;;;-3.72;100.00;98672.16;1701440;84;20956;-69
2021/01/13 05:11:48;;;;;;;9.17;5.23;;;;;;;-3.71;100.00;98658.84;1714448;83;21209;-71
2021/01/13 05:14:18;;;;;;;6.08;3.25;;;;;;;-3.70;100.00;98666.28;1740394;82;21000;-70
2021/01/13 05:17:05;;;;;;;12.17;5.80;;;;;;;-3.70;100.00;98647.78;1740188;82;21016;-70
2021/01/13 05:20:03;;;;;;;3.40;2.80;;;;;;;-3.70;100.00;98647.33;1740316;82;20901;-70
2021/01/13 05:22:34;;;;;;;8.20;5.83;;;;;;;-3.69;100.00;98656.09;1794308;79;21029;-68
2021/01/13 05:25:05;;;;;;;7.90;3.70;;;;;;;-3.68;100.00;98654.66;1675801;85;21127;-69
2021/01/13 05:27:59;;;;;;;7.83;4.93;;;;;;;-3.66;100.00;98657.19;1675758;85;21044;-70
2021/01/13 05:30:36;;;;;;;10.27;5.20;;;;;;;-3.61;100.00;98659.01;1845422;76;23235;-70
2021/01/13 05:33:08;;;;;;;11.90;5.80;;;;;;;-3.65;100.00;98668.97;1815556;79;20944;-70
2021/01/13 05:35:39;;;;;;;5.83;4.47;;;;;;;-3.64;100.00;98667.16;1728564;83;21561;-71
2021/01/13 05:38:16;;;;;;;5.53;3.53;;;;;;;-3.63;100.00;98659.12;1728077;83;20988;-70
2021/01/13 05:40:55;;;;;;;5.80;3.30;;;;;;;-3.63;100.00;98648.55;1728478;83;20965;-69
2021/01/13 05:43:23;;;;;;;5.23;3.03;;;;;;;-3.62;100.00;98662.11;1728242;83;21103;-70
2021/01/13 05:45:52;;;;;;;16.17;10.30;;;;;;;-3.60;100.00;98661.16;1728476;83;20992;-70
2021/01/13 05:48:25;;;;;;;6.63;4.40;;;;;;;-3.60;100.00;98651.42;1728199;81;21143;-71
2021/01/13 05:50:57;;;;;;;43.42;20.88;;;;;;;-3.60;100.00;98628.14;1728694;83;20976;-70
2021/01/13 05:53:26;;;;;;;6.45;4.70;;;;;;;-3.59;100.00;98623.20;1725639;83;21005;-71
2021/01/13 05:55:55;;;;;;;1.70;1.60;;;;;;;-3.58;100.00;98607.23;1724702;83;20969;-69
2021/01/13 05:58:26;;;;;;;2.03;1.77;;;;;;;-3.57;100.00;98585.14;1725903;83;21581;-69
2021/01/13 06:00:58;;;;;;;5.60;3.63;;;;;;;-3.56;100.00;98559.55;1726927;83;22376;-70
2021/01/13 06:03:34;;;;;;;3.30;2.90;;;;;;;-3.52;100.00;98552.61;1845675;76;23235;-71
2021/01/13 06:06:04;;;;;;;17.90;7.80;;;;;;;-3.52;100.00;98563.66;1820992;78;20962;-70
2021/01/13 06:08:33;;;;;;;9.77;5.00;;;;;;;-3.52;100.00;98570.27;1825609;78;22826;-71
2021/01/13 06:11:03;;;;;;;10.40;4.33;;;;;;;-3.51;100.00;98560.87;1805437;78;20926;-71
2021/01/13 06:13:35;;;;;;;7.57;3.43;;;;;;;-3.50;100.00;98540.60;1805445;78;20985;-69
2021/01/13 06:16:05;;;;;;;7.30;4.87;;;;;;;-3.50;100.00;98530.86;1825729;78;21405;-70
2021/01/13 06:18:36;;;;;;;10.30;6.13;;;;;;;-3.50;100.00;98527.39;1825857;78;21431;-69
2021/01/13 06:21:13;;;;;;;3.43;3.03;;;;;;;-3.48;100.00;98538.19;1825743;78;21322;-71
2021/01/13 06:23:49;;;;;;;3.70;2.67;;;;;;;-3.49;100.00;98523.31;1766368;81;21626;-70
2021/01/13 06:26:24;;;;;;;6.60;3.40;;;;;;;-3.47;100.00;98494.95;1845702;76;23915;-70
2021/01/13 06:29:03;;;;;;;7.07;3.70;;;;;;;-3.51;100.00;98519.92;1784973;79;20984;-70
2021/01/13 06:31:33;;;;;;;14.97;8.00;;;;;;;-3.52;100.00;98523.54;1808693;79;21283;-70
2021/01/13 06:34:29;;;;;;;5.47;2.63;;;;;;;-3.53;100.00;98507.31;1815632;77;20928;-70
2021/01/13 06:37:24;;;;;;;2.07;1.67;;;;;;;-3.55;100.00;98494.70;1815408;79;21000;-70
2021/01/13 06:39:52;;;;;;;5.63;2.57;;;;;;;-3.57;100.00;98487.38;1777190;79;21096;-71
2021/01/13 06:42:32;;;;;;;3.80;2.33;;;;;;;-3.59;100.00;98493.73;1777163;79;20994;-71
2021/01/13 06:45:00;;;;;;;2.00;1.73;;;;;;;-3.59;100.00;98497.23;1747064;80;21338;-70
2021/01/13 06:47:29;;;;;;;2.57;1.33;;;;;;;-3.59;100.00;98482.70;1748271;80;21029;-70
2021/01/13 06:49:57;;;;;;;1.93;1.70;;;;;;;-3.60;100.00;98477.05;1777248;80;20973;-69
2021/01/13 06:52:30;;;;;;;3.63;2.40;;;;;;;-3.59;100.00;98482.70;1760404;79;21012;-69
2021/01/13 06:55:02;;;;;;;8.37;3.93;;;;;;;-3.59;100.00;98481.84;1728060;83;21044;-70
2021/01/13 06:57:31;;;;;;;16.97;5.65;;;;;;;-3.59;100.00;98490.63;1743974;79;21198;-71
2021/01/13 07:00:01;;;;;;;22.70;11.53;;;;;;;-3.59;100.00;98460.24;1775553;80;20934;-68
2021/01/13 07:02:32;;;;;;;20.97;9.00;;;;;;;-3.60;100.00;98444.50;1775575;80;21065;-70
2021/01/13 07:05:11;;;;;;;23.63;14.43;;;;;;;-3.54;100.00;98447.97;1845095;76;26033;-69
2021/01/13 07:07:43;;;;;;;18.80;6.03;;;;;;;-3.56;100.00;98441.52;1809912;79;21577;-68
2021/01/13 07:10:12;;;;;;;10.40;5.33;;;;;;;-3.56;100.00;98433.59;1784154;79;22186;-70
2021/01/13 07:12:40;;;;;;;18.97;9.77;;;;;;;-3.52;100.00;98434.19;1814863;79;21075;-68
2021/01/13 07:15:09;;;;;;;7.50;3.00;;;;;;;-3.50;100.00;98408.47;1797261;78;21007;-70
2021/01/13 07:17:38;;;;;;;8.50;4.30;;;;;;;-3.47;100.00;98399.81;1783769;79;21011;-69
2021/01/13 07:20:07;;;;;;;5.77;3.83;;;;;;;-3.45;100.00;98383.84;1784215;79;20885;-70
2021/01/13 07:22:37;;;;;;;5.53;3.03;;;;;;;-3.42;100.00;98403.89;1780824;79;23598;-69
2021/01/13 07:25:10;;;;;;;4.43;2.17;;;;;;;-3.43;100.00;98405.70;1759444;79;21059;-69
2021/01/13 07:27:39;;;;;;;4.35;3.30;;;;;;;-3.44;100.00;98410.13;1809057;77;21114;-69
2021/01/13 07:30:09;;;;;;;6.97;3.90;;;;;;;-3.45;100.00;98403.66;1759861;79;20965;-68
2021/01/13 07:32:39;;;;;;;13.20;6.83;;;;;;;-3.45;100.00;98404.49;1815720;77;20933;-69
2021/01/13 07:35:10;;;;;;;9.13;4.53;;;;;;;-3.42;100.00;98410.00;1815543;79;21877;-63
2021/01/13 07:37:53;;;;;;;5.07;3.63;;;;;;;-3.39;100.00;98428.27;1815516;79;20969;-73
2021/01/13 07:40:32;;;;;;;;;;;;;;;-3.37;100.00;98428.98;1780367;79;21076;-73
2021/01/13 07:43:08;;;;;;;4.63;2.03;;;;;;;-3.38;100.00;98428.64;1777679;80;20178;-74
2021/01/13 07:45:53;;;;;;;2.73;2.10;;;;;;;-3.36;100.00;98421.91;1777652;80;21121;-72
2021/01/13 07:48:52;;;;;;;2.63;1.93;;;;;;;-3.34;100.00;98409.41;1748728;80;21900;-64
2021/01/13 07:51:21;;;;;;;4.53;2.73;;;;;;;-3.34;100.00;98394.88;1777577;80;21056;-70
2021/01/13 07:54:05;;;;;;;7.07;3.07;;;;;;;-3.33;100.00;98389.92;1748348;80;21048;-72
2021/01/13 07:56:41;;;;;;;6.40;3.97;;;;;;;-3.27;100.00;98390.77;1903667;75;24050;-72
2021/01/13 07:59:41;;;;;;;4.43;3.33;;;;;;;-3.27;100.00;98385.48;1784878;80;20986;-71
2021/01/13 08:02:51;;;;;;;5.90;3.87;;;;;;;-3.25;100.00;98357.95;1728080;83;21285;-72
2021/01/13 08:06:17;;;;;;;1.50;1.43;;;;;;;-3.19;100.00;98351.80;1762878;80;21444;-77
2021/01/13 08:09:08;;;;;;;2.67;2.37;;;;;;;-3.17;100.00;98346.77;1770342;80;21085;-77
2021/01/13 08:12:12;;;;;;;2.13;2.03;;;;;;;-3.17;100.00;98362.63;1761195;80;21087;-81
2021/01/13 08:15:11;;;;;;;3.17;2.40;;;;;;;-3.17;100.00;98356.48;1770916;80;21626;-74
2021/01/13 08:18:18;;;;;;;1.50;1.33;;;;;;;-3.15;100.00;98340.86;1771190;80;21204;-79
2021/01/13 08:21:14;;;;;;;5.60;2.77;;;;;;;-3.13;100.00;98324.39;1766772;80;21042;-77
2021/01/13 08:23:51;;;;;;;2.37;2.10;;;;;;;-3.11;100.00;98306.58;1737720;82;21060;-79
2021/01/13 08:26:19;;;;;;;9.37;4.57;;;;;;;-3.05;100.00;98268.21;1771787;80;20902;-76
2021/01/13 08:28:50;;;;;;;13.20;5.80;;;;;;;-3.02;100.00;98279.03;1732408;82;20957;-82
2021/01/13 08:31:26;;;;;;;7.17;4.17;;;;;;;-3.01;100.00;98294.77;1738130;82;21142;-82
2021/01/13 08:34:07;;;;;;;4.03;2.57;;;;;;;-2.98;100.00;98298.95;1759999;81;21445;-78
2021/01/13 08:36:54;;;;;;;2.77;2.33;;;;;;;-2.96;100.00;98281.15;1854013;76;23796;-79
2021/01/13 08:39:29;;;;;;;4.10;2.63;;;;;;;-3.00;100.00;98288.50;1857481;77;20922;-81
2021/01/13 08:42:29;;;;;;;4.10;3.20;;;;;;;-2.99;100.00;98288.87;1835798;77;21189;-73
2021/01/13 08:44:57;;;;;;;4.80;2.27;;;;;;;-2.98;100.00;98290.53;1827455;77;21058;-74
2021/01/13 08:47:26;;;;;;;3.80;3.20;;;;;;;-2.95;100.00;98289.45;1834858;77;21056;-78
2021/01/13 08:50:14;;;;;;;11.93;5.33;;;;;;;-2.94;100.00;98285.36;1856810;77;20969;-73
2021/01/13 08:52:50;;;;;;;14.73;8.23;;;;;;;-2.94;100.00;98274.78;1837241;77;20961;-74
2021/01/13 08:55:21;;;;;;;27.60;14.00;;;;;;;-2.91;100.00;98280.28;1828385;78;21257;-77
2021/01/13 08:58:07;;;;;;;15.37;9.03;;;;;;;-2.88;100.00;98259.70;1826070;77;21442;-71
2021/01/13 09:00:37;;;;;;;28.73;11.73;;;;;;;-2.86;100.00;98251.14;1822258;78;21006;-70
2021/01/13 09:03:25;;;;;;;36.20;18.03;;;;;;;-2.80;100.00;98247.14;1822137;78;21582;-73
2021/01/13 09:05:56;;;;;;;20.23;7.80;;;;;;;-2.78;100.00;98249.19;1822767;78;21005;-83
2021/01/13 09:08:33;;;;;;;16.62;7.03;;;;;;;-2.74;100.00;98255.89;1824152;78;21484;-81
2021/01/13 09:11:02;;;;;;;18.50;9.57;;;;;;;-2.73;100.00;98235.55;1825784;77;20992;-77
2021/01/13 09:13:35;;;;;;;17.37;8.23;;;;;;;-2.74;100.00;98229.92;1826684;77;21030;-77
2021/01/13 09:16:28;;;;;;;14.20;7.30;;;;;;;-2.73;100.00;98232.41;1846505;77;21367;-84
2021/01/13 09:18:59;;;;;;;25.55;11.18;;;;;;;-2.71;100.00;98227.86;1857455;77;21040;-84
2021/01/13 09:21:39;;;;;;;21.43;12.07;;;;;;;-2.68;100.00;98222.77;1830114;77;21098;-82
2021/01/13 09:24:19;;;;;;;6.23;3.83;;;;;;;-2.65;100.00;98216.39;1827185;77;21094;-75
2021/01/13 09:29:51;;;;;;;10.73;5.67;;;;;;;-2.54;100.00;98216.30;1841291;77;23959;-72
2021/01/13 09:32:22;;;;;;;8.70;5.60;;;;;;;-2.50;100.00;98239.73;1787375;79;21001;-72
2021/01/13 09:37:30;;;;;;;10.53;4.50;;;;;;;-2.33;100.00;98233.45;1821764;77;26025;-73
2021/01/13 09:40:01;;;;;;;11.07;6.13;;;;;;;-2.29;100.00;98231.70;1778331;79;20945;-72
2021/01/13 09:42:42;;;;;;;17.30;7.40;;;;;;;-2.15;100.00;98225.20;1774382;79;21445;-74
2021/01/13 09:45:12;;;;;;;12.30;7.03;;;;;;;-2.08;100.00;98208.30;1779911;79;21074;-73
2021/01/13 09:47:41;;;;;;;13.80;7.00;;;;;;;-2.00;100.00;98198.33;1778066;79;21601;-78
2021/01/13 09:50:11;;;;;;;11.30;6.53;;;;;;;-1.92;100.00;98210.42;1775495;79;20946;-77
2021/01/13 09:52:43;;;;;;;12.70;6.30;;;;;;;-1.84;100.00;98201.31;1789944;78;20983;-73
2021/01/13 09:55:13;;;;;;;7.03;4.70;;;;;;;-1.70;100.00;98197.89;1779113;79;21147;-77
2021/01/13 09:57:41;;;;;;;9.33;4.03;;;;;;;-1.63;100.00;98191.05;1777987;79;21037;-72
2021/01/13 10:00:13;;;;;;;8.20;4.70;;;;;;;-1.60;100.00;98194.27;1777147;79;21002;-72
2021/01/13 10:02:43;;;;;;;;;;;;;;;-1.55;100.00;98192.03;1781887;79;21030;-71
2021/01/13 10:05:14;;;;;;;8.10;4.83;;;;;;;-1.48;100.00;98188.34;1779586;79;20213;-74
2021/01/13 10:07:44;;;;;;;7.70;4.80;;;;;;;-1.44;100.00;98190.23;1782629;79;21195;-74
2021/01/13 10:10:15;;;;;;;5.60;3.65;;;;;;;-1.39;100.00;98202.08;1779349;79;21765;-74
2021/01/13 10:12:49;;;;;;;9.07;5.17;;;;;;;-1.37;100.00;98190.02;1772726;79;20994;-73
2021/01/13 10:15:17;;;;;;;5.60;3.13;;;;;;;-1.34;100.00;98182.61;1775961;80;20983;-75
2021/01/13 10:17:46;;;;;;;9.47;3.73;;;;;;;-1.29;100.00;98174.25;1775353;80;20932;-76
2021/01/13 10:20:19;;;;;;;7.67;4.13;;;;;;;-1.27;100.00;98172.78;1785300;79;21380;-79
2021/01/13 10:22:49;;;;;;;6.90;4.23;;;;;;;-1.23;100.00;98168.86;1791830;79;21006;-80
2021/01/13 10:25:31;;;;;;;6.17;3.67;;;;;;;-1.19;100.00;98162.28;1776268;80;21785;-77
2021/01/13 10:28:01;;;;;;;5.00;3.70;;;;;;;-1.15;100.00;98161.04;1773788;80;21072;-79
2021/01/13 10:30:31;;;;;;;8.77;5.93;;;;;;;-1.12;100.00;98173.99;1758040;80;21045;-79
2021/01/13 10:33:00;;;;;;;8.27;5.33;;;;;;;-1.13;100.00;98174.13;1778725;80;21315;-79
2021/01/13 10:35:42;;;;;;;8.10;4.53;;;;;;;-1.10;100.00;98164.56;1780183;80;21582;-79
2021/01/13 10:38:16;;;;;;;7.27;4.37;;;;;;;-1.06;100.00;98159.31;1738458;80;21213;-77
2021/01/13 10:40:49;;;;;;;3.97;3.07;;;;;;;-0.98;100.00;98156.79;1761350;80;21060;-75
2021/01/13 10:43:21;;;;;;;4.10;3.13;;;;;;;-0.90;100.00;98146.77;1754964;80;21041;-75
2021/01/13 10:46:02;;;;;;;6.83;4.13;;;;;;;-0.87;100.00;98139.86;1773466;80;21200;-74
2021/01/13 10:48:31;;;;;;;7.43;5.03;;;;;;;-0.81;100.00;98154.72;1745418;80;21059;-76
2021/01/13 10:50:59;;;;;;;3.23;2.90;;;;;;;-0.78;100.00;98151.78;1770968;80;21021;-78
2021/01/13 10:53:30;;;;;;;7.90;4.43;;;;;;;-0.77;100.00;98144.14;1760584;80;20958;-80
2021/01/13 10:56:00;;;;;;;9.40;5.50;;;;;;;-0.73;100.00;98119.47;1763376;80;20989;-79
2021/01/13 10:58:29;;;;;;;6.43;4.37;;;;;;;-0.69;100.00;98102.77;1771920;80;21808;-73
2021/01/13 11:01:05;;;;;;;11.87;5.90;;;;;;;-0.69;100.00;98113.38;1738617;82;20978;-79
2021/01/13 11:03:34;;;;;;;10.70;7.10;;;;;;;-0.69;100.00;98118.69;1740502;81;21243;-80
2021/01/13 11:06:03;;;;;;;13.30;8.00;;;;;;;-0.71;100.00;98102.91;1744044;82;21133;-75
2021/01/13 11:08:36;;;;;;;8.53;5.70;;;;;;;-0.71;100.00;98100.75;1743135;81;21069;-77
2021/01/13 11:11:07;;;;;;;10.77;6.97;;;;;;;-0.75;100.00;98100.21;1747933;80;21206;-80
2021/01/13 11:13:47;;;;;;;9.87;5.60;;;;;;;-0.73;100.00;98100.06;1760295;80;20949;-77
2021/01/13 11:16:17;;;;;;;9.77;6.43;;;;;;;-0.76;100.00;98101.21;1757967;80;20967;-81
2021/01/13 11:18:47;;;;;;;9.07;5.80;;;;;;;-0.74;100.00;98101.04;1746345;82;20922;-81
2021/01/13 11:21:16;;;;;;;15.90;8.47;;;;;;;-0.78;100.00;98096.52;1699718;83;21073;-80
2021/01/13 11:23:45;;;;;;;9.33;5.23;;;;;;;-0.77;100.00;98085.75;1701109;83;21177;-75
2021/01/13 11:26:14;;;;;;;19.20;11.03;;;;;;;-0.75;100.00;98090.09;1745896;81;21029;-77
2021/01/13 11:28:44;;;;;;;12.23;6.97;;;;;;;-0.74;100.00;98093.94;1746489;82;21041;-78
2021/01/13 11:31:14;;;;;;;12.37;6.43;;;;;;;-0.78;100.00;98107.12;1733486;81;21073;-78
2021/01/13 11:33:45;;;;;;;6.10;4.80;;;;;;;-0.82;100.00;98117.70;1775505;79;21041;-75
2021/01/13 11:36:15;;;;;;;9.03;5.40;;;;;;;-0.86;100.00;98109.20;1787172;79;21371;-86
2021/01/13 11:39:02;;;;;;;12.10;6.30;;;;;;;-0.86;100.00;98083.98;1773091;79;21010;-75
2021/01/13 11:41:44;;;;;;;8.47;5.73;;;;;;;-0.85;100.00;98075.06;1774382;79;21012;-74
2021/01/13 11:44:45;;;;;;;11.70;5.92;;;;;;;-0.87;100.00;98070.36;1766081;80;21572;-78
2021/01/13 11:47:29;;;;;;;14.63;6.83;;;;;;;-0.85;100.00;98072.87;1772946;80;21026;-78
2021/01/13 11:49:59;;;;;;;8.37;5.43;;;;;;;-0.88;100.00;98079.83;1768605;81;22069;-78
2021/01/13 11:52:33;;;;;;;6.43;4.27;;;;;;;-0.90;100.00;98081.30;1781057;79;20922;-78
2021/01/13 11:55:03;;;;;;;14.93;8.37;;;;;;;-0.90;100.00;98073.80;1764127;80;21486;-83
2021/01/13 11:57:35;;;;;;;9.60;5.87;;;;;;;-0.91;100.00;98064.19;1771665;81;21017;-84
2021/01/13 12:00:23;;;;;;;7.73;4.80;;;;;;;-0.93;100.00;98048.91;1760480;81;21057;-81
2021/01/13 12:02:57;;;;;;;3.20;2.90;;;;;;;-0.96;100.00;98060.64;1757955;81;22138;-80
2021/01/13 12:05:34;;;;;;;6.20;3.90;;;;;;;-1.02;100.00;98067.88;1756413;81;21670;-76